sensor_id;sensor_type;location;lat;lon;timestamp;temperature;humidity
33007;DHT22;19361;51.598;7.650;2024-01-25T00:03:39;11.90;61.50
33007;DHT22;19361;51.598;7.650;2024-01-25T00:08:40;11.90;62.40
33007;DHT22;19361;51.598;7.650;2024-01-25T00:13:40;11.90;62.00
33007;DHT22;19361;51.598;7.650;2024-01-25T00:18:41;11.90;62.10
33007;DHT22;19361;51.598;7.650;2024-01-25T00:23:42;11.90;62.40
33007;DHT22;19361;51.598;7.650;2024-01-25T00:28:42;11.90;62.30
33007;DHT22;19361;51.598;7.650;2024-01-25T00:33:43;11.90;62.30
33007;DHT22;19361;51.598;7.650;2024-01-25T00:38:44;11.90;62.30
33007;DHT22;19361;51.598;7.650;2024-01-25T00:43:45;11.90;62.40
33007;DHT22;19361;51.598;7.650;2024-01-25T00:48:46;11.90;62.50
33007;DHT22;19361;51.598;7.650;2024-01-25T00:53:47;11.80;63.00
33007;DHT22;19361;51.598;7.650;2024-01-25T00:58:48;11.80;62.40
33007;DHT22;19361;51.598;7.650;2024-01-25T01:03:49;11.80;62.30
33007;DHT22;19361;51.598;7.650;2024-01-25T01:08:53;11.80;62.30
33007;DHT22;19361;51.598;7.650;2024-01-25T01:13:54;11.80;62.40
33007;DHT22;19361;51.598;7.650;2024-01-25T01:18:54;11.70;62.30
33007;DHT22;19361;51.598;7.650;2024-01-25T01:23:55;11.70;62.30
33007;DHT22;19361;51.598;7.650;2024-01-25T01:28:56;11.60;62.30
33007;DHT22;19361;51.598;7.650;2024-01-25T01:33:56;11.60;62.30
33007;DHT22;19361;51.598;7.650;2024-01-25T01:38:58;11.60;62.40
33007;DHT22;19361;51.598;7.650;2024-01-25T01:43:59;11.50;62.50
33007;DHT22;19361;51.598;7.650;2024-01-25T01:48:59;11.50;62.60
33007;DHT22;19361;51.598;7.650;2024-01-25T01:54:06;11.50;62.80
33007;DHT22;19361;51.598;7.650;2024-01-25T01:59:11;11.50;62.90
33007;DHT22;19361;51.598;7.650;2024-01-25T02:04:12;11.50;62.90
33007;DHT22;19361;51.598;7.650;2024-01-25T02:09:13;11.50;62.80
33007;DHT22;19361;51.598;7.650;2024-01-25T02:14:13;11.50;62.90
33007;DHT22;19361;51.598;7.650;2024-01-25T02:19:14;11.50;62.80
33007;DHT22;19361;51.598;7.650;2024-01-25T02:24:15;11.50;62.90
33007;DHT22;19361;51.598;7.650;2024-01-25T02:29:15;11.40;62.70
33007;DHT22;19361;51.598;7.650;2024-01-25T02:34:16;11.40;62.60
33007;DHT22;19361;51.598;7.650;2024-01-25T02:39:17;11.40;62.50
33007;DHT22;19361;51.598;7.650;2024-01-25T02:44:17;11.30;62.60
33007;DHT22;19361;51.598;7.650;2024-01-25T02:49:18;11.20;62.50
33007;DHT22;19361;51.598;7.650;2024-01-25T02:54:19;11.10;62.50
33007;DHT22;19361;51.598;7.650;2024-01-25T02:59:20;11.00;62.60
33007;DHT22;19361;51.598;7.650;2024-01-25T03:04:20;10.90;62.60
33007;DHT22;19361;51.598;7.650;2024-01-25T03:09:21;10.90;62.80
33007;DHT22;19361;51.598;7.650;2024-01-25T03:14:23;10.80;62.90
33007;DHT22;19361;51.598;7.650;2024-01-25T03:19:25;10.70;63.20
33007;DHT22;19361;51.598;7.650;2024-01-25T03:24:26;10.60;63.10
33007;DHT22;19361;51.598;7.650;2024-01-25T03:29:27;10.60;63.30
33007;DHT22;19361;51.598;7.650;2024-01-25T03:34:28;10.50;63.30
33007;DHT22;19361;51.598;7.650;2024-01-25T03:39:28;10.50;63.40
33007;DHT22;19361;51.598;7.650;2024-01-25T03:44:29;10.40;63.50
33007;DHT22;19361;51.598;7.650;2024-01-25T03:49:30;10.40;63.60
33007;DHT22;19361;51.598;7.650;2024-01-25T03:54:30;10.30;63.70
33007;DHT22;19361;51.598;7.650;2024-01-25T03:59:31;10.30;63.90
33007;DHT22;19361;51.598;7.650;2024-01-25T04:04:32;10.20;63.90
33007;DHT22;19361;51.598;7.650;2024-01-25T04:09:33;10.20;63.80
33007;DHT22;19361;51.598;7.650;2024-01-25T04:14:33;10.10;64.10
33007;DHT22;19361;51.598;7.650;2024-01-25T04:19:36;10.00;63.90
33007;DHT22;19361;51.598;7.650;2024-01-25T04:24:37;10.00;64.00
33007;DHT22;19361;51.598;7.650;2024-01-25T04:29:41;10.00;64.00
33007;DHT22;19361;51.598;7.650;2024-01-25T04:34:43;9.90;64.60
33007;DHT22;19361;51.598;7.650;2024-01-25T04:39:44;9.90;64.40
33007;DHT22;19361;51.598;7.650;2024-01-25T04:44:45;9.80;64.50
33007;DHT22;19361;51.598;7.650;2024-01-25T04:49:46;9.80;64.60
33007;DHT22;19361;51.598;7.650;2024-01-25T04:54:46;9.70;64.70
33007;DHT22;19361;51.598;7.650;2024-01-25T04:59:47;9.70;64.80
33007;DHT22;19361;51.598;7.650;2024-01-25T05:04:47;9.60;64.80
33007;DHT22;19361;51.598;7.650;2024-01-25T05:09:48;9.60;64.90
33007;DHT22;19361;51.598;7.650;2024-01-25T05:14:49;9.60;65.00
33007;DHT22;19361;51.598;7.650;2024-01-25T05:19:49;9.60;65.10
33007;DHT22;19361;51.598;7.650;2024-01-25T05:24:50;9.50;65.10
33007;DHT22;19361;51.598;7.650;2024-01-25T05:29:51;9.40;65.10
33007;DHT22;19361;51.598;7.650;2024-01-25T05:34:51;9.40;65.10
33007;DHT22;19361;51.598;7.650;2024-01-25T05:39:52;9.30;65.20
33007;DHT22;19361;51.598;7.650;2024-01-25T05:44:53;9.30;65.20
33007;DHT22;19361;51.598;7.650;2024-01-25T05:49:54;9.20;65.10
33007;DHT22;19361;51.598;7.650;2024-01-25T05:54:55;9.20;65.20
33007;DHT22;19361;51.598;7.650;2024-01-25T05:59:56;9.20;65.30
33007;DHT22;19361;51.598;7.650;2024-01-25T06:04:56;9.00;65.30
33007;DHT22;19361;51.598;7.650;2024-01-25T06:10:00;9.00;65.50
33007;DHT22;19361;51.598;7.650;2024-01-25T06:15:01;8.90;65.60
33007;DHT22;19361;51.598;7.650;2024-01-25T06:20:01;8.90;65.80
33007;DHT22;19361;51.598;7.650;2024-01-25T06:25:03;8.90;65.90
33007;DHT22;19361;51.598;7.650;2024-01-25T06:30:05;8.80;66.00
33007;DHT22;19361;51.598;7.650;2024-01-25T06:35:06;8.80;66.00
33007;DHT22;19361;51.598;7.650;2024-01-25T06:40:07;8.70;66.10
33007;DHT22;19361;51.598;7.650;2024-01-25T06:45:09;8.70;66.20
33007;DHT22;19361;51.598;7.650;2024-01-25T06:50:10;8.60;66.30
33007;DHT22;19361;51.598;7.650;2024-01-25T06:55:10;8.60;66.40
33007;DHT22;19361;51.598;7.650;2024-01-25T07:00:12;8.60;66.50
33007;DHT22;19361;51.598;7.650;2024-01-25T07:05:16;8.60;66.60
33007;DHT22;19361;51.598;7.650;2024-01-25T07:10:16;8.60;66.70
33007;DHT22;19361;51.598;7.650;2024-01-25T07:15:17;8.50;66.80
33007;DHT22;19361;51.598;7.650;2024-01-25T07:20:18;8.60;67.00
33007;DHT22;19361;51.598;7.650;2024-01-25T07:25:19;8.50;67.00
33007;DHT22;19361;51.598;7.650;2024-01-25T07:30:19;8.50;67.20
33007;DHT22;19361;51.598;7.650;2024-01-25T07:35:20;8.50;67.40
33007;DHT22;19361;51.598;7.650;2024-01-25T07:40:23;8.50;67.60
33007;DHT22;19361;51.598;7.650;2024-01-25T07:45:24;8.50;67.90
33007;DHT22;19361;51.598;7.650;2024-01-25T07:50:25;8.60;68.20
33007;DHT22;19361;51.598;7.650;2024-01-25T07:55:26;8.60;68.20
33007;DHT22;19361;51.598;7.650;2024-01-25T08:00:27;8.60;68.30
33007;DHT22;19361;51.598;7.650;2024-01-25T08:05:28;8.60;68.40
33007;DHT22;19361;51.598;7.650;2024-01-25T08:10:28;8.70;68.50
33007;DHT22;19361;51.598;7.650;2024-01-25T08:15:29;8.70;68.70
33007;DHT22;19361;51.598;7.650;2024-01-25T08:20:30;8.80;68.80
33007;DHT22;19361;51.598;7.650;2024-01-25T08:25:31;8.80;68.80
33007;DHT22;19361;51.598;7.650;2024-01-25T08:30:32;8.90;68.90
33007;DHT22;19361;51.598;7.650;2024-01-25T08:35:33;8.90;69.10
33007;DHT22;19361;51.598;7.650;2024-01-25T08:40:33;9.00;69.40
33007;DHT22;19361;51.598;7.650;2024-01-25T08:45:34;9.00;69.10
33007;DHT22;19361;51.598;7.650;2024-01-25T08:50:35;9.10;69.20
33007;DHT22;19361;51.598;7.650;2024-01-25T08:55:36;9.20;69.40
33007;DHT22;19361;51.598;7.650;2024-01-25T09:00:37;9.20;69.20
33007;DHT22;19361;51.598;7.650;2024-01-25T09:05:37;9.30;69.40
33007;DHT22;19361;51.598;7.650;2024-01-25T09:10:45;9.30;69.40
33007;DHT22;19361;51.598;7.650;2024-01-25T09:15:45;9.30;69.30
33007;DHT22;19361;51.598;7.650;2024-01-25T09:20:47;9.40;69.40
33007;DHT22;19361;51.598;7.650;2024-01-25T09:25:48;9.50;69.60
33007;DHT22;19361;51.598;7.650;2024-01-25T09:30:49;9.50;69.70
33007;DHT22;19361;51.598;7.650;2024-01-25T09:35:50;9.60;69.70
33007;DHT22;19361;51.598;7.650;2024-01-25T09:40:50;9.70;69.60
33007;DHT22;19361;51.598;7.650;2024-01-25T09:45:55;9.70;69.50
33007;DHT22;19361;51.598;7.650;2024-01-25T09:50:55;9.80;69.40
33007;DHT22;19361;51.598;7.650;2024-01-25T09:56:06;9.90;69.50
33007;DHT22;19361;51.598;7.650;2024-01-25T10:01:12;9.90;69.70
33007;DHT22;19361;51.598;7.650;2024-01-25T10:06:14;10.00;69.50
33007;DHT22;19361;51.598;7.650;2024-01-25T10:11:16;10.10;69.60
33007;DHT22;19361;51.598;7.650;2024-01-25T10:16:18;10.10;69.20
33007;DHT22;19361;51.598;7.650;2024-01-25T10:21:20;10.20;69.20
33007;DHT22;19361;51.598;7.650;2024-01-25T10:26:21;10.20;69.00
33007;DHT22;19361;51.598;7.650;2024-01-25T10:31:25;10.20;68.80
33007;DHT22;19361;51.598;7.650;2024-01-25T10:36:26;10.30;68.80
33007;DHT22;19361;51.598;7.650;2024-01-25T10:41:27;10.30;68.70
33007;DHT22;19361;51.598;7.650;2024-01-25T10:46:29;10.40;68.80
33007;DHT22;19361;51.598;7.650;2024-01-25T10:51:30;10.40;68.80
33007;DHT22;19361;51.598;7.650;2024-01-25T10:56:31;10.50;68.90
33007;DHT22;19361;51.598;7.650;2024-01-25T11:01:33;10.60;69.00
33007;DHT22;19361;51.598;7.650;2024-01-25T11:06:34;10.80;69.00
33007;DHT22;19361;51.598;7.650;2024-01-25T11:11:38;10.90;68.30
33007;DHT22;19361;51.598;7.650;2024-01-25T11:16:39;11.00;67.60
33007;DHT22;19361;51.598;7.650;2024-01-25T11:21:46;11.00;67.20
33007;DHT22;19361;51.598;7.650;2024-01-25T11:26:48;11.10;67.00
33007;DHT22;19361;51.598;7.650;2024-01-25T11:31:51;11.00;66.90
33007;DHT22;19361;51.598;7.650;2024-01-25T11:36:52;11.00;66.80
33007;DHT22;19361;51.598;7.650;2024-01-25T11:41:54;11.00;66.70
33007;DHT22;19361;51.598;7.650;2024-01-25T11:46:55;11.00;66.50
33007;DHT22;19361;51.598;7.650;2024-01-25T11:51:58;11.00;66.50
33007;DHT22;19361;51.598;7.650;2024-01-25T11:56:59;11.00;66.40
33007;DHT22;19361;51.598;7.650;2024-01-25T12:02:01;11.00;66.40
33007;DHT22;19361;51.598;7.650;2024-01-25T12:07:03;11.10;66.40
33007;DHT22;19361;51.598;7.650;2024-01-25T12:12:04;11.10;66.00
33007;DHT22;19361;51.598;7.650;2024-01-25T12:17:05;11.10;65.80
33007;DHT22;19361;51.598;7.650;2024-01-25T12:22:06;11.10;65.80
33007;DHT22;19361;51.598;7.650;2024-01-25T12:27:07;11.10;65.90
33007;DHT22;19361;51.598;7.650;2024-01-25T12:32:07;11.10;65.90
33007;DHT22;19361;51.598;7.650;2024-01-25T12:37:08;11.10;65.90
33007;DHT22;19361;51.598;7.650;2024-01-25T12:42:09;11.10;65.90
33007;DHT22;19361;51.598;7.650;2024-01-25T12:47:09;11.10;65.90
33007;DHT22;19361;51.598;7.650;2024-01-25T12:52:12;11.20;65.90
33007;DHT22;19361;51.598;7.650;2024-01-25T12:57:13;11.20;65.70
33007;DHT22;19361;51.598;7.650;2024-01-25T13:02:14;11.30;65.70
33007;DHT22;19361;51.598;7.650;2024-01-25T13:07:15;11.40;65.70
33007;DHT22;19361;51.598;7.650;2024-01-25T13:12:16;11.40;65.20
33007;DHT22;19361;51.598;7.650;2024-01-25T13:17:16;11.50;64.90
33007;DHT22;19361;51.598;7.650;2024-01-25T13:22:17;11.50;64.80
33007;DHT22;19361;51.598;7.650;2024-01-25T13:27:21;11.50;64.50
33007;DHT22;19361;51.598;7.650;2024-01-25T13:32:24;11.50;64.20
33007;DHT22;19361;51.598;7.650;2024-01-25T13:37:25;11.50;64.00
33007;DHT22;19361;51.598;7.650;2024-01-25T13:42:26;11.50;64.00
33007;DHT22;19361;51.598;7.650;2024-01-25T13:47:26;11.60;63.90
33007;DHT22;19361;51.598;7.650;2024-01-25T13:52:29;11.70;63.60
33007;DHT22;19361;51.598;7.650;2024-01-25T13:57:29;11.70;63.40
33007;DHT22;19361;51.598;7.650;2024-01-25T14:02:32;11.70;63.10
33007;DHT22;19361;51.598;7.650;2024-01-25T14:07:33;11.70;63.00
33007;DHT22;19361;51.598;7.650;2024-01-25T14:12:33;11.70;62.50
33007;DHT22;19361;51.598;7.650;2024-01-25T14:17:34;11.70;62.90
33007;DHT22;19361;51.598;7.650;2024-01-25T14:22:36;11.70;62.80
33007;DHT22;19361;51.598;7.650;2024-01-25T14:27:37;11.70;62.80
33007;DHT22;19361;51.598;7.650;2024-01-25T14:32:38;11.70;62.60
33007;DHT22;19361;51.598;7.650;2024-01-25T14:37:38;11.70;62.30
33007;DHT22;19361;51.598;7.650;2024-01-25T14:42:39;11.70;62.40
33007;DHT22;19361;51.598;7.650;2024-01-25T14:47:40;11.60;62.50
33007;DHT22;19361;51.598;7.650;2024-01-25T14:52:40;11.60;62.50
33007;DHT22;19361;51.598;7.650;2024-01-25T14:57:41;11.50;62.60
33007;DHT22;19361;51.598;7.650;2024-01-25T15:02:42;11.40;62.60
33007;DHT22;19361;51.598;7.650;2024-01-25T15:07:42;11.40;62.60
33007;DHT22;19361;51.598;7.650;2024-01-25T15:12:43;11.30;62.60
33007;DHT22;19361;51.598;7.650;2024-01-25T15:17:44;11.30;62.60
33007;DHT22;19361;51.598;7.650;2024-01-25T15:22:45;11.20;62.70
33007;DHT22;19361;51.598;7.650;2024-01-25T15:27:45;11.20;62.90
33007;DHT22;19361;51.598;7.650;2024-01-25T15:32:46;11.10;63.00
33007;DHT22;19361;51.598;7.650;2024-01-25T15:37:47;11.10;63.10
33007;DHT22;19361;51.598;7.650;2024-01-25T15:42:48;11.20;63.20
33007;DHT22;19361;51.598;7.650;2024-01-25T15:47:54;11.10;63.10
33007;DHT22;19361;51.598;7.650;2024-01-25T15:52:55;11.10;63.10
33007;DHT22;19361;51.598;7.650;2024-01-25T15:57:56;11.20;63.20
33007;DHT22;19361;51.598;7.650;2024-01-25T16:02:56;11.10;63.30
33007;DHT22;19361;51.598;7.650;2024-01-25T16:07:57;11.10;63.20
33007;DHT22;19361;51.598;7.650;2024-01-25T16:12:58;11.10;63.30
33007;DHT22;19361;51.598;7.650;2024-01-25T16:17:58;11.10;63.20
33007;DHT22;19361;51.598;7.650;2024-01-25T16:22:59;11.00;63.20
33007;DHT22;19361;51.598;7.650;2024-01-25T16:28:00;11.00;63.30
33007;DHT22;19361;51.598;7.650;2024-01-25T16:33:01;11.00;63.30
33007;DHT22;19361;51.598;7.650;2024-01-25T16:38:02;11.00;63.40
33007;DHT22;19361;51.598;7.650;2024-01-25T16:43:03;11.00;63.40
33007;DHT22;19361;51.598;7.650;2024-01-25T16:48:04;11.00;63.50
33007;DHT22;19361;51.598;7.650;2024-01-25T16:53:05;11.00;63.70
33007;DHT22;19361;51.598;7.650;2024-01-25T16:58:06;11.00;63.60
33007;DHT22;19361;51.598;7.650;2024-01-25T17:03:06;11.00;63.70
33007;DHT22;19361;51.598;7.650;2024-01-25T17:08:07;11.00;63.70
33007;DHT22;19361;51.598;7.650;2024-01-25T17:13:08;11.00;63.80
33007;DHT22;19361;51.598;7.650;2024-01-25T17:18:09;11.00;63.80
33007;DHT22;19361;51.598;7.650;2024-01-25T17:23:09;11.00;63.80
33007;DHT22;19361;51.598;7.650;2024-01-25T17:28:10;11.10;64.00
33007;DHT22;19361;51.598;7.650;2024-01-25T17:33:11;11.10;64.10
33007;DHT22;19361;51.598;7.650;2024-01-25T17:38:12;11.00;64.10
33007;DHT22;19361;51.598;7.650;2024-01-25T17:43:12;11.00;64.40
33007;DHT22;19361;51.598;7.650;2024-01-25T17:48:13;11.10;64.90
33007;DHT22;19361;51.598;7.650;2024-01-25T17:53:14;11.00;65.10
33007;DHT22;19361;51.598;7.650;2024-01-25T17:58:14;11.00;65.20
33007;DHT22;19361;51.598;7.650;2024-01-25T18:03:15;11.00;65.50
33007;DHT22;19361;51.598;7.650;2024-01-25T18:08:16;10.90;65.60
33007;DHT22;19361;51.598;7.650;2024-01-25T18:13:16;10.90;65.70
33007;DHT22;19361;51.598;7.650;2024-01-25T18:18:17;10.90;65.90
33007;DHT22;19361;51.598;7.650;2024-01-25T18:23:18;10.90;66.10
33007;DHT22;19361;51.598;7.650;2024-01-25T18:28:18;10.90;66.10
33007;DHT22;19361;51.598;7.650;2024-01-25T18:33:19;10.90;66.20
33007;DHT22;19361;51.598;7.650;2024-01-25T18:38:20;10.90;66.20
33007;DHT22;19361;51.598;7.650;2024-01-25T18:43:21;10.90;66.30
33007;DHT22;19361;51.598;7.650;2024-01-25T18:48:24;10.90;66.30
33007;DHT22;19361;51.598;7.650;2024-01-25T18:53:29;10.90;66.30
33007;DHT22;19361;51.598;7.650;2024-01-25T18:58:31;10.90;66.70
33007;DHT22;19361;51.598;7.650;2024-01-25T19:03:32;10.90;66.60
33007;DHT22;19361;51.598;7.650;2024-01-25T19:08:33;10.90;66.80
33007;DHT22;19361;51.598;7.650;2024-01-25T19:13:34;10.90;66.90
33007;DHT22;19361;51.598;7.650;2024-01-25T19:18:35;10.90;67.10
33007;DHT22;19361;51.598;7.650;2024-01-25T19:23:35;10.90;67.20
33007;DHT22;19361;51.598;7.650;2024-01-25T19:28:37;10.90;67.50
33007;DHT22;19361;51.598;7.650;2024-01-25T19:33:37;10.80;67.80
33007;DHT22;19361;51.598;7.650;2024-01-25T19:38:38;10.80;68.40
33007;DHT22;19361;51.598;7.650;2024-01-25T19:43:41;10.80;68.80
33007;DHT22;19361;51.598;7.650;2024-01-25T19:48:43;10.70;69.10
33007;DHT22;19361;51.598;7.650;2024-01-25T19:53:43;10.60;69.10
33007;DHT22;19361;51.598;7.650;2024-01-25T19:58:45;10.60;69.30
33007;DHT22;19361;51.598;7.650;2024-01-25T20:03:46;10.60;69.50
33007;DHT22;19361;51.598;7.650;2024-01-25T20:08:48;10.60;69.80
33007;DHT22;19361;51.598;7.650;2024-01-25T20:13:49;10.60;70.00
33007;DHT22;19361;51.598;7.650;2024-01-25T20:18:49;10.60;69.90
33007;DHT22;19361;51.598;7.650;2024-01-25T20:23:50;10.50;70.00
33007;DHT22;19361;51.598;7.650;2024-01-25T20:28:50;10.60;70.20
33007;DHT22;19361;51.598;7.650;2024-01-25T20:33:51;10.60;70.60
33007;DHT22;19361;51.598;7.650;2024-01-25T20:38:52;10.60;70.60
33007;DHT22;19361;51.598;7.650;2024-01-25T20:43:52;10.60;70.70
33007;DHT22;19361;51.598;7.650;2024-01-25T20:48:53;10.60;70.90
33007;DHT22;19361;51.598;7.650;2024-01-25T20:53:54;10.60;71.30
33007;DHT22;19361;51.598;7.650;2024-01-25T20:58:54;10.60;71.20
33007;DHT22;19361;51.598;7.650;2024-01-25T21:03:55;10.60;71.10
33007;DHT22;19361;51.598;7.650;2024-01-25T21:08:57;10.60;71.20
33007;DHT22;19361;51.598;7.650;2024-01-25T21:13:58;10.70;71.30
33007;DHT22;19361;51.598;7.650;2024-01-25T21:18:59;10.70;71.30
33007;DHT22;19361;51.598;7.650;2024-01-25T21:23:59;10.70;71.30
33007;DHT22;19361;51.598;7.650;2024-01-25T21:29:00;10.80;71.50
33007;DHT22;19361;51.598;7.650;2024-01-25T21:34:01;10.80;71.50
33007;DHT22;19361;51.598;7.650;2024-01-25T21:39:02;10.80;71.70
33007;DHT22;19361;51.598;7.650;2024-01-25T21:44:03;10.80;72.00
33007;DHT22;19361;51.598;7.650;2024-01-25T21:49:05;10.90;71.90
33007;DHT22;19361;51.598;7.650;2024-01-25T21:54:06;10.90;71.70
33007;DHT22;19361;51.598;7.650;2024-01-25T21:59:07;10.80;71.80
33007;DHT22;19361;51.598;7.650;2024-01-25T22:04:07;10.80;71.70
33007;DHT22;19361;51.598;7.650;2024-01-25T22:09:08;10.90;72.00
33007;DHT22;19361;51.598;7.650;2024-01-25T22:14:09;10.90;72.00
33007;DHT22;19361;51.598;7.650;2024-01-25T22:19:10;10.90;72.00
33007;DHT22;19361;51.598;7.650;2024-01-25T22:24:10;10.90;72.00
33007;DHT22;19361;51.598;7.650;2024-01-25T22:29:11;10.90;72.20
33007;DHT22;19361;51.598;7.650;2024-01-25T22:34:12;10.90;72.30
33007;DHT22;19361;51.598;7.650;2024-01-25T22:39:12;10.90;72.40
33007;DHT22;19361;51.598;7.650;2024-01-25T22:44:13;10.90;72.70
33007;DHT22;19361;51.598;7.650;2024-01-25T22:49:14;11.00;72.70
33007;DHT22;19361;51.598;7.650;2024-01-25T22:54:14;11.00;72.90
33007;DHT22;19361;51.598;7.650;2024-01-25T22:59:15;11.00;72.90
33007;DHT22;19361;51.598;7.650;2024-01-25T23:04:16;11.00;72.90
33007;DHT22;19361;51.598;7.650;2024-01-25T23:09:17;11.10;73.10
33007;DHT22;19361;51.598;7.650;2024-01-25T23:14:19;11.10;73.10
33007;DHT22;19361;51.598;7.650;2024-01-25T23:19:19;11.20;73.40
33007;DHT22;19361;51.598;7.650;2024-01-25T23:24:21;11.10;73.70
33007;DHT22;19361;51.598;7.650;2024-01-25T23:29:22;11.20;74.40
33007;DHT22;19361;51.598;7.650;2024-01-25T23:34:23;11.20;74.30
33007;DHT22;19361;51.598;7.650;2024-01-25T23:39:24;11.20;74.10
33007;DHT22;19361;51.598;7.650;2024-01-25T23:44:25;11.20;74.00
33007;DHT22;19361;51.598;7.650;2024-01-25T23:49:25;11.30;74.10
33007;DHT22;19361;51.598;7.650;2024-01-25T23:54:26;11.30;74.30
33007;DHT22;19361;51.598;7.650;2024-01-25T23:59:27;11.30;74.30
